createdAt,value
2023-01-13T00:36:05.565Z,9.95
2023-01-13T00:56:05.531Z,9.95
2023-01-13T01:16:05.504Z,10.16
2023-01-13T01:36:05.446Z,10.22
2023-01-13T01:56:05.406Z,10.08
2023-01-13T02:36:05.349Z,9.68
2023-01-13T02:56:05.302Z,9.6
2023-01-13T03:16:05.291Z,9.61
2023-01-13T03:36:05.228Z,9.37
2023-01-13T03:56:05.206Z,8.97
2023-01-13T06:56:04.912Z,8.38
2023-01-13T08:36:04.738Z,8.5
2023-01-13T08:56:04.713Z,8.6
2023-01-13T09:56:04.636Z,8.71
2023-01-13T10:16:04.645Z,8.98
2023-01-13T10:36:04.533Z,9.04
2023-01-13T10:56:04.521Z,9.27
2023-01-13T11:16:04.533Z,9.26
2023-01-13T11:36:04.488Z,8.96
2023-01-13T11:56:04.428Z,8.88
2023-01-13T12:36:04.343Z,7.8
2023-01-13T13:16:04.268Z,9.32
2023-01-13T13:56:04.217Z,6.73
2023-01-13T14:16:04.235Z,7.36
2023-01-13T14:36:04.087Z,7.73
2023-01-13T15:16:04.049Z,7.54
2023-01-13T15:36:04.020Z,7.55
2023-01-13T17:36:03.844Z,8.18
2023-01-13T18:56:03.715Z,7.75
2023-01-13T19:56:03.621Z,7.55
2023-01-13T20:16:03.622Z,7.78
2023-01-13T20:36:03.556Z,7.91
2023-01-13T21:16:03.541Z,8.09
2023-01-13T21:36:03.464Z,7.71
2023-01-13T21:56:03.450Z,7.67
2023-01-13T22:16:03.415Z,7.7
2023-01-13T22:36:03.384Z,7.59
2023-01-13T22:56:03.347Z,7.59
2023-01-13T23:16:03.303Z,7.77
2023-01-13T23:36:03.272Z,8.04
2023-01-13T23:56:03.246Z,8.04
